Time;durP1;ratioP1;P1;durP2;ratioP2;P2;SDS_P1;SDS_P2;PMS_P1;PMS_P2;Temp;Humidity;BMP_temperature;BMP_pressure;BME280_temperature;BME280_humidity;BME280_pressure;Samples;Min_cycle;Max_cycle;Signal;HPM_P1;HPM_P2
2021/11/17 02:28:05;;;;;;;25.42;12.05;;;;;;;;;;4992894;28;20326;-50
2021/11/17 02:30:40;;;;;;;25.15;12.20;;;;;;;;;;5052612;28;20179;-51
2021/11/17 02:33:12;;;;;;;24.63;11.75;;;;;;;;;;5053488;28;20275;-51
2021/11/17 02:35:38;;;;;;;21.73;11.10;;;;;;;;;;5053688;28;20172;-51
2021/11/17 02:38:12;;;;;;;20.03;10.40;;;;;;;;;;5053800;28;20212;-50
2021/11/17 02:40:38;;;;;;;22.90;11.60;;;;;;;;;;5053968;28;20401;-49
2021/11/17 02:43:25;;;;;;;26.10;12.07;;;;;;;;;;5053793;28;20187;-51
2021/11/17 02:46:15;;;;;;;23.85;12.20;;;;;;;;;;5054001;28;20634;-51
2021/11/17 02:48:50;;;;;;;21.90;11.68;;;;;;;;;;5054549;28;20162;-52
2021/11/17 02:51:42;;;;;;;20.13;10.95;;;;;;;;;;5054424;28;20167;-50
2021/11/17 02:54:18;;;;;;;21.13;10.55;;;;;;;;;;5051487;28;20210;-49
2021/11/17 02:56:59;;;;;;;23.63;11.07;;;;;;;;;;5053850;28;20189;-51
2021/11/17 02:59:25;;;;;;;25.00;11.70;;;;;;;;;;5053868;28;20580;-50
2021/11/17 03:01:54;;;;;;;20.67;10.90;;;;;;;;;;5054050;28;20266;-50
2021/11/17 03:04:29;;;;;;;18.83;9.55;;;;;;;;;;5053429;28;20913;-49
2021/11/17 03:07:05;;;;;;;18.70;9.48;;;;;;;;;;5053689;28;20177;-51
2021/11/17 03:09:43;;;;;;;21.50;10.38;;;;;;;;;;5053867;28;20189;-51
2021/11/17 03:12:15;;;;;;;16.60;10.75;;;;;;;;;;5053365;28;20187;-50
2021/11/17 03:14:50;;;;;;;19.40;9.63;;;;;;;;;;5052784;28;20335;-50
2021/11/17 03:17:35;;;;;;;17.92;10.27;;;;;;;;;;5053645;28;20173;-51
2021/11/17 03:20:01;;;;;;;19.50;10.13;;;;;;;;;;5053307;28;20201;-48
2021/11/17 03:22:30;;;;;;;19.00;10.20;;;;;;;;;;5052565;28;20191;-51
2021/11/17 03:25:05;;;;;;;20.52;10.52;;;;;;;;;;5053109;28;20398;-49
2021/11/17 03:28:07;;;;;;;14.18;9.20;;;;;;;;;;5052967;28;20720;-51
2021/11/17 03:30:47;;;;;;;17.38;9.15;;;;;;;;;;4972332;28;20541;-52
2021/11/17 03:33:26;;;;;;;18.13;9.80;;;;;;;;;;5044689;28;20212;-49
2021/11/17 03:36:04;;;;;;;19.00;9.45;;;;;;;;;;5053546;28;20401;-50
2021/11/17 03:38:40;;;;;;;17.90;8.77;;;;;;;;;;5053101;28;20589;-50
2021/11/17 03:41:24;;;;;;;18.60;8.88;;;;;;;;;;5053506;28;20688;-52
2021/11/17 03:44:09;;;;;;;11.87;7.93;;;;;;;;;;5053121;28;20241;-52
2021/11/17 03:46:37;;;;;;;14.95;8.65;;;;;;;;;;5052818;28;20398;-50
2021/11/17 03:49:06;;;;;;;17.55;9.40;;;;;;;;;;5052916;28;20236;-52
2021/11/17 03:51:44;;;;;;;15.80;8.80;;;;;;;;;;5052908;28;20727;-50
2021/11/17 03:54:32;;;;;;;17.27;8.83;;;;;;;;;;5052264;28;20460;-51
2021/11/17 03:57:13;;;;;;;18.17;9.57;;;;;;;;;;5051479;28;20443;-50
2021/11/17 03:59:45;;;;;;;19.08;9.40;;;;;;;;;;5052260;28;20174;-50
2021/11/17 04:02:36;;;;;;;21.08;10.02;;;;;;;;;;5052344;28;20670;-52
2021/11/17 04:05:07;;;;;;;20.83;10.55;;;;;;;;;;5052498;28;20175;-51
2021/11/17 04:07:38;;;;;;;22.55;11.05;;;;;;;;;;5052602;28;20629;-49
2021/11/17 04:10:23;;;;;;;22.15;10.77;;;;;;;;;;5052503;28;20658;-51
2021/11/17 04:12:58;;;;;;;19.88;9.98;;;;;;;;;;5052423;28;20261;-50
2021/11/17 04:15:43;;;;;;;21.48;11.32;;;;;;;;;;5052126;28;20178;-52
2021/11/17 04:18:27;;;;;;;24.38;11.35;;;;;;;;;;5053149;28;20195;-51
2021/11/17 04:21:05;;;;;;;26.10;12.32;;;;;;;;;;5052383;28;20197;-51
2021/11/17 04:23:34;;;;;;;25.20;12.40;;;;;;;;;;5051562;28;20248;-50
2021/11/17 04:26:00;;;;;;;28.50;14.50;;;;;;;;;;5052287;28;20254;-49
2021/11/17 04:28:29;;;;;;;30.00;13.30;;;;;;;;;;5052271;28;20584;-51
2021/11/17 04:31:14;;;;;;;22.63;12.63;;;;;;;;;;5052507;28;20403;-51
2021/11/17 04:34:05;;;;;;;32.25;15.43;;;;;;;;;;5052054;28;20260;-51
2021/11/17 04:36:40;;;;;;;26.50;13.32;;;;;;;;;;5052040;28;20169;-51
2021/11/17 04:39:15;;;;;;;28.23;14.52;;;;;;;;;;5052294;28;20159;-51
2021/11/17 04:42:02;;;;;;;28.10;14.27;;;;;;;;;;5051911;28;20222;-51
2021/11/17 04:44:27;;;;;;;25.95;12.48;;;;;;;;;;5021151;28;20207;-51
2021/11/17 04:46:59;;;;;;;33.87;15.20;;;;;;;;;;5052171;28;20163;-49
2021/11/17 04:49:25;;;;;;;32.22;16.52;;;;;;;;;;5051705;28;20405;-49
2021/11/17 04:52:01;;;;;;;27.33;14.00;;;;;;;;;;5051627;28;20216;-49
2021/11/17 04:54:39;;;;;;;34.63;16.13;;;;;;;;;;5051621;28;20486;-52
2021/11/17 04:57:05;;;;;;;38.22;15.75;;;;;;;;;;5051458;28;20731;-51
2021/11/17 04:59:31;;;;;;;27.30;14.23;;;;;;;;;;5053691;28;20188;-52
2021/11/17 05:02:16;;;;;;;28.38;14.32;;;;;;;;;;5055390;28;20216;-51
2021/11/17 05:04:42;;;;;;;33.10;15.52;;;;;;;;;;5055557;28;20213;-50
2021/11/17 05:07:11;;;;;;;27.70;14.27;;;;;;;;;;5055629;28;20202;-49
2021/11/17 05:09:37;;;;;;;38.22;15.85;;;;;;;;;;5055234;28;20397;-51
2021/11/17 05:12:16;;;;;;;34.10;14.60;;;;;;;;;;5055528;28;20171;-49
2021/11/17 05:14:42;;;;;;;31.60;14.85;;;;;;;;;;5054993;28;20453;-51
2021/11/17 05:17:11;;;;;;;36.80;15.35;;;;;;;;;;5055779;28;20170;-51
2021/11/17 05:19:55;;;;;;;25.20;13.73;;;;;;;;;;5056079;28;20240;-51
2021/11/17 05:22:42;;;;;;;35.33;15.88;;;;;;;;;;5054987;28;20176;-50
2021/11/17 05:25:29;;;;;;;27.77;13.95;;;;;;;;;;5025168;28;20180;-51
2021/11/17 05:27:55;;;;;;;33.13;15.02;;;;;;;;;;5055046;28;20167;-51
2021/11/17 05:30:43;;;;;;;27.10;13.50;;;;;;;;;;5055376;28;20163;-52
2021/11/17 05:33:18;;;;;;;31.53;15.00;;;;;;;;;;5054517;28;20409;-52
2021/11/17 05:35:51;;;;;;;29.90;14.45;;;;;;;;;;5054959;28;20404;-50
2021/11/17 05:38:27;;;;;;;28.02;16.17;;;;;;;;;;5054571;28;20670;-51
2021/11/17 05:41:05;;;;;;;31.40;15.50;;;;;;;;;;5054451;28;20221;-51
2021/11/17 05:43:41;;;;;;;28.40;14.50;;;;;;;;;;5054145;28;20201;-51
2021/11/17 05:46:09;;;;;;;32.35;14.70;;;;;;;;;;5054366;28;20166;-49
2021/11/17 05:48:50;;;;;;;35.38;15.65;;;;;;;;;;5054172;28;20171;-50
2021/11/17 05:51:16;;;;;;;39.00;16.13;;;;;;;;;;5054617;28;20174;-51
2021/11/17 05:53:52;;;;;;;44.70;18.47;;;;;;;;;;5053852;28;20199;-50
2021/11/17 05:56:42;;;;;;;36.40;16.92;;;;;;;;;;5053790;28;20784;-50
2021/11/17 05:59:24;;;;;;;37.85;17.13;;;;;;;;;;5054140;28;20175;-50
2021/11/17 06:02:14;;;;;;;30.90;14.40;;;;;;;;;;5053849;28;20171;-49
2021/11/17 06:04:40;;;;;;;41.38;14.38;;;;;;;;;;5052902;28;20190;-50
2021/11/17 06:07:06;;;;;;;38.80;16.13;;;;;;;;;;5053904;28;20168;-49
2021/11/17 06:09:32;;;;;;;32.47;15.83;;;;;;;;;;5053564;28;20769;-49
2021/11/17 06:12:03;;;;;;;40.20;15.93;;;;;;;;;;5053993;28;20909;-50
2021/11/17 06:14:33;;;;;;;38.45;14.25;;;;;;;;;;5053544;28;20443;-49
2021/11/17 06:17:02;;;;;;;29.58;15.55;;;;;;;;;;5053577;28;20171;-50
2021/11/17 06:19:30;;;;;;;38.80;16.77;;;;;;;;;;5053536;28;20163;-52
2021/11/17 06:21:57;;;;;;;37.40;15.57;;;;;;;;;;5053718;28;20163;-51
2021/11/17 06:24:26;;;;;;;29.20;15.73;;;;;;;;;;5053268;28;20563;-49
2021/11/17 06:26:53;;;;;;;32.13;16.38;;;;;;;;;;5053336;28;20195;-51
2021/11/17 06:29:27;;;;;;;36.20;16.98;;;;;;;;;;5053312;28;20675;-49
2021/11/17 06:31:54;;;;;;;32.65;15.40;;;;;;;;;;5053015;28;20171;-49
2021/11/17 06:34:28;;;;;;;38.08;16.30;;;;;;;;;;5052886;28;20214;-50
2021/11/17 06:36:54;;;;;;;38.28;15.90;;;;;;;;;;5052971;28;20199;-49
2021/11/17 06:39:20;;;;;;;37.13;14.85;;;;;;;;;;5053177;28;20163;-49
2021/11/17 06:41:47;;;;;;;35.22;15.88;;;;;;;;;;5052877;28;20171;-50
2021/11/17 06:44:13;;;;;;;33.53;15.55;;;;;;;;;;5053342;28;20554;-49
2021/11/17 06:46:58;;;;;;;33.20;16.70;;;;;;;;;;5053011;28;20170;-50
2021/11/17 06:49:24;;;;;;;28.83;15.68;;;;;;;;;;5053118;28;20448;-51
2021/11/17 06:51:50;;;;;;;33.43;14.80;;;;;;;;;;5053149;28;20171;-50
2021/11/17 06:54:16;;;;;;;38.92;14.95;;;;;;;;;;5053127;28;20461;-51
2021/11/17 06:56:43;;;;;;;32.60;15.63;;;;;;;;;;5053247;28;20576;-50
2021/11/17 06:59:08;;;;;;;30.45;15.25;;;;;;;;;;5053397;28;20585;-49
2021/11/17 07:01:35;;;;;;;34.93;15.80;;;;;;;;;;5053145;28;20168;-52
2021/11/17 07:04:00;;;;;;;32.35;15.60;;;;;;;;;;5053222;28;20511;-52
2021/11/17 07:06:27;;;;;;;35.77;15.53;;;;;;;;;;5053444;28;20202;-50
2021/11/17 07:08:54;;;;;;;26.95;13.48;;;;;;;;;;5052838;28;20485;-49
2021/11/17 07:11:20;;;;;;;28.70;15.23;;;;;;;;;;5052968;28;20575;-52
2021/11/17 07:13:46;;;;;;;35.97;15.38;;;;;;;;;;5052856;28;20964;-51
2021/11/17 07:16:12;;;;;;;36.90;14.90;;;;;;;;;;5052989;28;20614;-52
2021/11/17 07:18:38;;;;;;;31.83;15.30;;;;;;;;;;5053146;28;20185;-52
2021/11/17 07:21:06;;;;;;;31.52;16.58;;;;;;;;;;5051450;28;20470;-51
2021/11/17 07:23:32;;;;;;;31.77;14.95;;;;;;;;;;5057511;28;20194;-52
2021/11/17 07:25:58;;;;;;;34.10;16.03;;;;;;;;;;5055589;28;20700;-49
2021/11/17 07:28:24;;;;;;;34.28;14.85;;;;;;;;;;5052253;28;20914;-49
2021/11/17 07:30:50;;;;;;;31.40;15.48;;;;;;;;;;5051895;28;20213;-51
2021/11/17 07:33:16;;;;;;;32.07;15.07;;;;;;;;;;5050182;28;20190;-51
2021/11/17 07:35:44;;;;;;;30.90;13.40;;;;;;;;;;5051434;28;20519;-51
2021/11/17 07:38:11;;;;;;;28.60;14.57;;;;;;;;;;5053281;28;20452;-49
2021/11/17 07:40:40;;;;;;;30.53;15.33;;;;;;;;;;5053185;28;20427;-49
2021/11/17 07:43:09;;;;;;;31.67;15.75;;;;;;;;;;5051874;28;20418;-51
2021/11/17 07:45:35;;;;;;;31.83;15.02;;;;;;;;;;5052868;28;20171;-52
2021/11/17 07:48:01;;;;;;;24.27;14.20;;;;;;;;;;5053704;28;20677;-51
2021/11/17 07:50:27;;;;;;;27.20;13.97;;;;;;;;;;5053346;28;20393;-52
2021/11/17 07:52:53;;;;;;;27.23;14.47;;;;;;;;;;5053408;28;20464;-51
2021/11/17 07:55:20;;;;;;;23.35;13.30;;;;;;;;;;5052296;28;20960;-50
2021/11/17 07:57:49;;;;;;;30.10;13.88;;;;;;;;;;5051557;28;20704;-51
2021/11/17 08:00:21;;;;;;;24.80;13.03;;;;;;;;;;5051568;28;20257;-49
2021/11/17 08:02:47;;;;;;;25.97;14.47;;;;;;;;;;5051278;28;20415;-51
2021/11/17 08:05:13;;;;;;;24.20;12.77;;;;;;;;;;5051528;28;20817;-50
2021/11/17 08:07:40;;;;;;;26.27;13.57;;;;;;;;;;5051495;28;20400;-51
2021/11/17 08:10:07;;;;;;;25.83;13.80;;;;;;;;;;5051482;28;20411;-49
2021/11/17 08:12:33;;;;;;;24.20;14.93;;;;;;;;;;5051197;28;20402;-50
2021/11/17 08:14:59;;;;;;;25.10;14.30;;;;;;;;;;5051338;28;20887;-51
2021/11/17 08:17:25;;;;;;;29.13;13.90;;;;;;;;;;5051360;28;20407;-49
2021/11/17 08:19:51;;;;;;;27.53;14.43;;;;;;;;;;5051369;28;20453;-51
2021/11/17 08:22:17;;;;;;;27.40;14.70;;;;;;;;;;5051205;28;20426;-50
2021/11/17 08:24:44;;;;;;;32.73;16.17;;;;;;;;;;5051138;28;20414;-50
2021/11/17 08:27:13;;;;;;;27.57;16.57;;;;;;;;;;5051667;28;20406;-51
2021/11/17 08:29:39;;;;;;;26.00;14.50;;;;;;;;;;5051351;28;20407;-50
2021/11/17 08:32:06;;;;;;;27.10;15.07;;;;;;;;;;5051117;28;20414;-49
2021/11/17 08:34:32;;;;;;;28.10;15.37;;;;;;;;;;5054506;28;20520;-50
2021/11/17 08:36:58;;;;;;;24.10;14.20;;;;;;;;;;5055073;28;20426;-50
2021/11/17 08:39:25;;;;;;;35.13;15.77;;;;;;;;;;5054793;28;20415;-49
2021/11/17 08:41:51;;;;;;;30.73;16.40;;;;;;;;;;5055072;28;20403;-49
2021/11/17 08:44:16;;;;;;;28.87;15.47;;;;;;;;;;5054702;28;20419;-49
2021/11/17 08:46:42;;;;;;;28.87;15.27;;;;;;;;;;5054839;28;20429;-50
2021/11/17 08:49:08;;;;;;;27.03;14.80;;;;;;;;;;5054967;28;20454;-49
2021/11/17 08:51:34;;;;;;;26.73;16.07;;;;;;;;;;5054648;28;20922;-49
2021/11/17 08:54:01;;;;;;;22.90;14.00;;;;;;;;;;5054310;28;20545;-50
2021/11/17 08:56:31;;;;;;;26.73;14.63;;;;;;;;;;5054590;28;20425;-50
2021/11/17 08:58:57;;;;;;;25.63;15.47;;;;;;;;;;5054750;28;20827;-50
2021/11/17 09:01:23;;;;;;;27.60;14.77;;;;;;;;;;5054736;28;20483;-49
2021/11/17 09:03:49;;;;;;;30.63;17.10;;;;;;;;;;5054394;28;20428;-51
2021/11/17 09:06:15;;;;;;;26.97;15.30;;;;;;;;;;5054548;28;20438;-50
2021/11/17 09:08:41;;;;;;;24.03;14.83;;;;;;;;;;5054546;28;20434;-51
2021/11/17 09:11:09;;;;;;;27.43;15.70;;;;;;;;;;5054770;28;20441;-51
2021/11/17 09:13:36;;;;;;;27.10;13.83;;;;;;;;;;5054147;28;20457;-50
2021/11/17 09:16:03;;;;;;;25.00;15.30;;;;;;;;;;5054352;28;20402;-50
2021/11/17 09:18:31;;;;;;;31.03;15.23;;;;;;;;;;5054321;28;20408;-49
2021/11/17 09:20:58;;;;;;;21.27;13.50;;;;;;;;;;5062218;28;20780;-49
2021/11/17 09:23:26;;;;;;;26.20;13.63;;;;;;;;;;5053939;28;20423;-50
2021/11/17 09:25:53;;;;;;;29.23;14.97;;;;;;;;;;5054126;28;20404;-50
2021/11/17 09:28:20;;;;;;;22.20;13.30;;;;;;;;;;5053151;28;20505;-49
2021/11/17 09:30:47;;;;;;;22.10;13.20;;;;;;;;;;5053919;28;20896;-49
2021/11/17 09:33:14;;;;;;;21.00;13.23;;;;;;;;;;5053682;28;20418;-50
2021/11/17 09:35:40;;;;;;;22.20;11.70;;;;;;;;;;5053838;28;20438;-50
2021/11/17 09:38:07;;;;;;;23.43;13.10;;;;;;;;;;5053946;28;20400;-50
2021/11/17 09:40:46;;;;;;;18.23;11.87;;;;;;;;;;5053927;28;20403;-51
2021/11/17 09:43:13;;;;;;;20.40;11.87;;;;;;;;;;5053516;28;20426;-51
2021/11/17 09:45:40;;;;;;;21.77;11.77;;;;;;;;;;5052925;28;20959;-50
2021/11/17 09:48:06;;;;;;;20.10;12.30;;;;;;;;;;5053624;28;20396;-50
2021/11/17 09:50:47;;;;;;;21.57;12.00;;;;;;;;;;5053699;28;20410;-50
2021/11/17 09:53:20;;;;;;;18.77;12.63;;;;;;;;;;5053240;28;20427;-50
2021/11/17 09:55:49;;;;;;;20.90;12.50;;;;;;;;;;5053374;28;20449;-50
2021/11/17 09:58:17;;;;;;;21.17;12.13;;;;;;;;;;5053537;28;20879;-50
2021/11/17 10:00:49;;;;;;;18.80;11.80;;;;;;;;;;5053368;28;20622;-50
2021/11/17 10:03:18;;;;;;;22.33;12.90;;;;;;;;;;5053087;28;20422;-50
2021/11/17 10:14:06;;;;;;;22.33;10.43;;;;;;;;;;5053029;28;20475;-49
2021/11/17 10:16:32;;;;;;;21.57;11.90;;;;;;;;;;5053117;28;20413;-49
2021/11/17 10:19:14;;;;;;;20.17;11.70;;;;;;;;;;5053099;28;20431;-50
2021/11/17 10:21:40;;;;;;;19.77;10.70;;;;;;;;;;5053126;28;20412;-50
2021/11/17 10:24:14;;;;;;;19.23;12.33;;;;;;;;;;5053463;28;20469;-48
2021/11/17 10:26:51;;;;;;;22.23;12.23;;;;;;;;;;5053016;28;20443;-48
2021/11/17 10:29:27;;;;;;;23.97;12.50;;;;;;;;;;5052972;28;20412;-49
2021/11/17 10:31:56;;;;;;;18.40;11.40;;;;;;;;;;5051426;28;21158;-48
2021/11/17 10:34:28;;;;;;;25.00;12.00;;;;;;;;;;5052545;28;20542;-50
2021/11/17 10:37:03;;;;;;;17.73;11.53;;;;;;;;;;5052695;28;20415;-49
2021/11/17 10:39:29;;;;;;;19.70;12.07;;;;;;;;;;5052738;28;20891;-48
2021/11/17 10:42:01;;;;;;;20.97;12.07;;;;;;;;;;5052425;28;20415;-49
2021/11/17 10:44:42;;;;;;;21.27;12.97;;;;;;;;;;5052260;28;20425;-50
2021/11/17 10:47:20;;;;;;;21.43;12.30;;;;;;;;;;5052462;28;20399;-48
2021/11/17 10:49:51;;;;;;;20.33;12.70;;;;;;;;;;5052644;28;20410;-48
2021/11/17 10:52:29;;;;;;;20.07;12.70;;;;;;;;;;5052468;28;20465;-49
2021/11/17 10:54:56;;;;;;;26.70;11.73;;;;;;;;;;5052072;28;20456;-49
2021/11/17 10:57:24;;;;;;;22.27;12.67;;;;;;;;;;5051572;28;20416;-50
2021/11/17 10:59:50;;;;;;;24.43;12.23;;;;;;;;;;5052334;28;20423;-50
2021/11/17 11:02:16;;;;;;;22.60;12.50;;;;;;;;;;5052354;28;20405;-49
2021/11/17 11:04:45;;;;;;;22.00;11.70;;;;;;;;;;5052353;28;20808;-49
2021/11/17 11:07:15;;;;;;;28.13;13.27;;;;;;;;;;5052130;28;20466;-48
2021/11/17 11:09:43;;;;;;;25.83;10.73;;;;;;;;;;5052198;28;20404;-48
2021/11/17 11:12:10;;;;;;;23.50;12.60;;;;;;;;;;5052177;28;20410;-48
2021/11/17 11:14:47;;;;;;;22.47;12.43;;;;;;;;;;5051956;28;20929;-49
2021/11/17 11:17:22;;;;;;;21.07;11.60;;;;;;;;;;5051890;28;20408;-48
2021/11/17 11:19:49;;;;;;;22.50;13.27;;;;;;;;;;5051985;28;20773;-49
2021/11/17 11:22:20;;;;;;;21.33;11.83;;;;;;;;;;5051766;28;20862;-49
2021/11/17 11:24:46;;;;;;;25.47;12.60;;;;;;;;;;5051980;28;20415;-49
2021/11/17 11:27:14;;;;;;;22.20;11.80;;;;;;;;;;5051942;28;20441;-48
2021/11/17 11:29:45;;;;;;;26.23;13.50;;;;;;;;;;5051906;28;20449;-49
2021/11/17 11:32:14;;;;;;;32.67;13.73;;;;;;;;;;5051646;28;20492;-48
2021/11/17 11:34:48;;;;;;;29.77;13.17;;;;;;;;;;5051696;28;21070;-48
2021/11/17 11:37:22;;;;;;;23.10;12.37;;;;;;;;;;5051747;28;20404;-47
2021/11/17 11:39:49;;;;;;;28.83;14.13;;;;;;;;;;5051837;28;20448;-49
2021/11/17 11:42:21;;;;;;;29.23;13.97;;;;;;;;;;5051525;28;20396;-48
2021/11/17 11:44:58;;;;;;;29.67;14.40;;;;;;;;;;5051650;28;20454;-48
2021/11/17 11:47:24;;;;;;;26.90;14.80;;;;;;;;;;5051688;28;20408;-48
2021/11/17 11:49:53;;;;;;;27.00;14.67;;;;;;;;;;5051707;28;20775;-48
2021/11/17 11:52:24;;;;;;;31.83;12.63;;;;;;;;;;5051505;28;20856;-49
2021/11/17 11:54:54;;;;;;;24.00;12.80;;;;;;;;;;5051516;28;20980;-48
2021/11/17 11:57:19;;;;;;;23.00;12.50;;;;;;;;;;5051476;28;20403;-49
2021/11/17 11:59:45;;;;;;;29.60;13.60;;;;;;;;;;5051599;28;20886;-51
2021/11/17 12:02:19;;;;;;;26.13;13.90;;;;;;;;;;5051380;28;20865;-49
2021/11/17 12:04:50;;;;;;;31.67;15.27;;;;;;;;;;5051597;28;20418;-48
2021/11/17 12:07:19;;;;;;;25.33;14.47;;;;;;;;;;5051483;28;20397;-48
2021/11/17 12:09:53;;;;;;;32.07;16.40;;;;;;;;;;5055464;28;20492;-49
2021/11/17 12:12:21;;;;;;;28.47;15.53;;;;;;;;;;5055169;28;20458;-48
2021/11/17 12:14:53;;;;;;;28.03;15.53;;;;;;;;;;5055457;28;20483;-48
2021/11/17 12:17:23;;;;;;;41.67;17.27;;;;;;;;;;5055459;28;20422;-48
2021/11/17 12:19:57;;;;;;;36.50;17.03;;;;;;;;;;5055866;28;20870;-49
2021/11/17 12:22:35;;;;;;;37.40;16.40;;;;;;;;;;5054968;28;20847;-50
2021/11/17 12:25:17;;;;;;;35.37;17.63;;;;;;;;;;5055515;28;20421;-49
2021/11/17 12:27:43;;;;;;;39.47;16.97;;;;;;;;;;5055016;28;20405;-48
2021/11/17 12:30:19;;;;;;;32.90;16.40;;;;;;;;;;5055222;28;20438;-48
2021/11/17 12:32:55;;;;;;;31.03;15.37;;;;;;;;;;5054821;28;20428;-48
2021/11/17 12:35:33;;;;;;;34.17;16.97;;;;;;;;;;5055061;28;20629;-48
2021/11/17 12:38:01;;;;;;;34.70;16.50;;;;;;;;;;5062395;28;20425;-50
2021/11/17 12:40:37;;;;;;;43.03;17.50;;;;;;;;;;5054985;28;20903;-50
2021/11/17 12:43:05;;;;;;;44.97;17.20;;;;;;;;;;5053321;28;20428;-50
2021/11/17 12:45:37;;;;;;;39.87;17.90;;;;;;;;;;5054854;28;20440;-49
2021/11/17 12:48:03;;;;;;;33.17;16.17;;;;;;;;;;5054900;28;20814;-49
2021/11/17 12:50:38;;;;;;;36.17;17.50;;;;;;;;;;5055360;28;20844;-50
2021/11/17 12:53:08;;;;;;;46.00;18.73;;;;;;;;;;5054580;28;20438;-50
2021/11/17 12:55:43;;;;;;;45.40;19.17;;;;;;;;;;5054529;28;21005;-51
2021/11/17 12:58:12;;;;;;;39.20;17.87;;;;;;;;;;5054817;28;20560;-50
2021/11/17 13:00:46;;;;;;;40.17;16.93;;;;;;;;;;5054767;28;20773;-49
2021/11/17 13:03:23;;;;;;;40.40;18.83;;;;;;;;;;5058333;28;20442;-50
2021/11/17 13:05:59;;;;;;;34.63;16.63;;;;;;;;;;5065587;28;20419;-51
2021/11/17 13:08:32;;;;;;;41.17;18.13;;;;;;;;;;5054656;28;20812;-51
2021/11/17 13:10:58;;;;;;;41.93;18.10;;;;;;;;;;5054394;28;20403;-50
2021/11/17 13:13:38;;;;;;;42.50;17.67;;;;;;;;;;5053166;28;20431;-50
2021/11/17 13:16:06;;;;;;;56.33;18.10;;;;;;;;;;5053076;28;20403;-49
2021/11/17 13:18:34;;;;;;;36.50;16.17;;;;;;;;;;5053909;28;20404;-51
2021/11/17 13:21:12;;;;;;;38.23;16.50;;;;;;;;;;5053326;28;20400;-51
2021/11/17 13:24:00;;;;;;;37.90;16.53;;;;;;;;;;5053687;28;20419;-51
2021/11/17 13:26:26;;;;;;;33.23;16.50;;;;;;;;;;5052999;28;20408;-50
2021/11/17 13:28:53;;;;;;;39.13;17.60;;;;;;;;;;5051745;28;20918;-50
2021/11/17 13:31:32;;;;;;;38.33;18.70;;;;;;;;;;5042282;28;20415;-50
2021/11/17 13:34:09;;;;;;;34.97;17.30;;;;;;;;;;5043684;28;20536;-50
2021/11/17 13:36:41;;;;;;;35.87;17.30;;;;;;;;;;5052000;28;20934;-51
2021/11/17 13:39:08;;;;;;;36.50;16.93;;;;;;;;;;5053195;28;20458;-50
2021/11/17 13:41:34;;;;;;;42.60;17.43;;;;;;;;;;5039971;28;20946;-51
2021/11/17 13:44:04;;;;;;;35.70;18.37;;;;;;;;;;5047774;28;20474;-50
2021/11/17 13:46:30;;;;;;;37.93;17.87;;;;;;;;;;5053791;28;20450;-50
2021/11/17 13:48:56;;;;;;;30.50;15.67;;;;;;;;;;5045668;28;20416;-49
2021/11/17 13:51:26;;;;;;;34.30;16.07;;;;;;;;;;5033817;28;20964;-51
2021/11/17 13:53:52;;;;;;;29.30;14.90;;;;;;;;;;5033387;28;20464;-51
2021/11/17 13:56:30;;;;;;;35.80;16.70;;;;;;;;;;5033468;28;20428;-50
2021/11/17 13:58:56;;;;;;;29.80;15.83;;;;;;;;;;5041210;28;20484;-50
2021/11/17 14:01:22;;;;;;;32.30;15.37;;;;;;;;;;5066761;28;20903;-50
2021/11/17 14:03:49;;;;;;;31.93;15.40;;;;;;;;;;5052166;28;20461;-50
2021/11/17 14:06:16;;;;;;;28.33;14.87;;;;;;;;;;5051079;28;20450;-50
2021/11/17 14:08:42;;;;;;;29.47;14.50;;;;;;;;;;5051283;28;20519;-50
2021/11/17 14:11:09;;;;;;;32.17;15.80;;;;;;;;;;5053223;28;20498;-50
2021/11/17 14:13:35;;;;;;;26.40;14.97;;;;;;;;;;5052975;28;20418;-50
2021/11/17 14:16:01;;;;;;;35.30;16.70;;;;;;;;;;5053205;28;20462;-49
2021/11/17 14:18:29;;;;;;;37.17;15.00;;;;;;;;;;5053232;28;20399;-50
2021/11/17 14:20:55;;;;;;;31.87;14.47;;;;;;;;;;5053205;28;20402;-50
2021/11/17 14:23:21;;;;;;;24.37;13.50;;;;;;;;;;5052782;28;20908;-49
2021/11/17 14:25:47;;;;;;;26.97;13.93;;;;;;;;;;5053011;28;20405;-50
2021/11/17 14:28:19;;;;;;;25.40;12.60;;;;;;;;;;5053089;28;20404;-50
2021/11/17 14:30:45;;;;;;;29.23;13.80;;;;;;;;;;5052652;28;20444;-49
2021/11/17 14:33:13;;;;;;;31.73;15.77;;;;;;;;;;5052677;28;20518;-50
2021/11/17 14:35:39;;;;;;;27.13;14.60;;;;;;;;;;5052621;28;20865;-50
2021/11/17 14:38:06;;;;;;;29.93;16.83;;;;;;;;;;5052869;28;20416;-49
2021/11/17 14:40:32;;;;;;;29.10;14.30;;;;;;;;;;5052326;28;20404;-49
2021/11/17 14:42:58;;;;;;;32.67;15.63;;;;;;;;;;5052443;28;20421;-51
2021/11/17 14:45:26;;;;;;;34.10;15.37;;;;;;;;;;5052689;28;20908;-51
2021/11/17 14:47:52;;;;;;;35.03;15.27;;;;;;;;;;5052361;28;20414;-50
2021/11/17 14:50:19;;;;;;;40.37;17.13;;;;;;;;;;5052639;28;20412;-50
2021/11/17 14:52:45;;;;;;;38.03;18.83;;;;;;;;;;5052394;28;20425;-51
2021/11/17 14:55:13;;;;;;;38.77;17.90;;;;;;;;;;5052335;28;20510;-51
2021/11/17 14:57:39;;;;;;;43.63;18.13;;;;;;;;;;5052626;28;20411;-51
2021/11/17 15:00:07;;;;;;;49.67;20.10;;;;;;;;;;5052628;28;20428;-50
2021/11/17 15:02:32;;;;;;;54.70;18.97;;;;;;;;;;5052164;28;20409;-52
2021/11/17 15:04:58;;;;;;;42.47;18.07;;;;;;;;;;5052410;28;20412;-51
2021/11/17 15:07:24;;;;;;;48.70;19.17;;;;;;;;;;5052506;28;20496;-51
2021/11/17 15:09:50;;;;;;;49.70;20.33;;;;;;;;;;5052301;28;20416;-51
2021/11/17 15:12:19;;;;;;;52.27;20.60;;;;;;;;;;5052132;28;20413;-51
2021/11/17 15:14:45;;;;;;;41.97;19.57;;;;;;;;;;5052242;28;20468;-51
2021/11/17 15:17:12;;;;;;;54.37;22.53;;;;;;;;;;5052118;28;20400;-52
2021/11/17 15:19:38;;;;;;;52.83;20.27;;;;;;;;;;5052299;28;20415;-50
2021/11/17 15:22:04;;;;;;;54.47;22.00;;;;;;;;;;5052271;28;20411;-51
2021/11/17 15:24:32;;;;;;;55.03;20.50;;;;;;;;;;5051886;28;20428;-50
2021/11/17 15:26:58;;;;;;;47.57;19.93;;;;;;;;;;5052017;28;20960;-52
2021/11/17 15:29:24;;;;;;;71.57;26.45;;;;;;;;;;5051342;28;20403;-50
2021/11/17 15:31:50;;;;;;;60.33;24.73;;;;;;;;;;5051971;28;20588;-50
2021/11/17 15:34:16;;;;;;;57.23;24.20;;;;;;;;;;5051694;28;20488;-51
2021/11/17 15:36:42;;;;;;;74.93;23.87;;;;;;;;;;5051972;28;20439;-51
2021/11/17 15:39:08;;;;;;;51.80;22.17;;;;;;;;;;5051891;28;20972;-51
2021/11/17 15:41:37;;;;;;;62.33;23.20;;;;;;;;;;5051874;28;20408;-50
2021/11/17 15:44:03;;;;;;;65.63;24.67;;;;;;;;;;5050801;28;20456;-50
2021/11/17 15:46:30;;;;;;;61.63;23.77;;;;;;;;;;5051674;28;20752;-50
2021/11/17 15:48:56;;;;;;;61.93;24.40;;;;;;;;;;5051890;28;20843;-50
2021/11/17 15:51:31;;;;;;;66.23;25.47;;;;;;;;;;5051861;28;20440;-50
2021/11/17 15:53:57;;;;;;;52.53;21.93;;;;;;;;;;5051404;28;20463;-51
2021/11/17 15:56:24;;;;;;;56.63;22.07;;;;;;;;;;5051654;28;20425;-51
2021/11/17 15:58:50;;;;;;;72.13;24.53;;;;;;;;;;5051643;28;20401;-50
2021/11/17 16:01:19;;;;;;;70.67;25.83;;;;;;;;;;5051806;28;20449;-50
2021/11/17 16:03:50;;;;;;;72.63;25.27;;;;;;;;;;5051471;28;20424;-50
2021/11/17 16:06:16;;;;;;;70.70;24.87;;;;;;;;;;5051693;28;20412;-51
2021/11/17 16:08:42;;;;;;;79.73;27.07;;;;;;;;;;5051685;28;20954;-51
2021/11/17 16:11:08;;;;;;;67.67;25.07;;;;;;;;;;5051723;28;20439;-51
2021/11/17 16:13:34;;;;;;;72.23;27.83;;;;;;;;;;5051370;28;20783;-50
2021/11/17 16:16:00;;;;;;;83.20;28.40;;;;;;;;;;5044365;28;20425;-51
2021/11/17 16:18:26;;;;;;;79.27;27.80;;;;;;;;;;5051413;28;20411;-51
2021/11/17 16:20:56;;;;;;;83.77;29.10;;;;;;;;;;5051485;28;20773;-50
2021/11/17 16:26:07;;;;;;;95.07;28.13;;;;;;;;;;5051380;28;20462;-50
2021/11/17 16:28:38;;;;;;;79.50;27.17;;;;;;;;;;5051557;28;20434;-51
2021/11/17 16:31:06;;;;;;;80.30;27.73;;;;;;;;;;5057564;28;20851;-50
2021/11/17 16:33:32;;;;;;;84.50;27.60;;;;;;;;;;5051004;28;20428;-51
2021/11/17 16:35:58;;;;;;;95.37;29.50;;;;;;;;;;5051991;28;20430;-48
2021/11/17 16:38:24;;;;;;;85.00;30.87;;;;;;;;;;5051148;28;20401;-48
2021/11/17 16:40:51;;;;;;;92.37;30.63;;;;;;;;;;5051130;28;20408;-49
2021/11/17 16:43:17;;;;;;;86.63;29.50;;;;;;;;;;5050841;28;20428;-48
2021/11/17 16:45:44;;;;;;;87.43;29.00;;;;;;;;;;5050964;28;20495;-49
2021/11/17 16:48:10;;;;;;;85.17;27.80;;;;;;;;;;5051072;28;20495;-49
2021/11/17 16:50:37;;;;;;;89.47;28.57;;;;;;;;;;5050985;28;20910;-48
2021/11/17 16:53:03;;;;;;;88.20;29.00;;;;;;;;;;5050736;28;20475;-48
2021/11/17 16:55:31;;;;;;;89.13;30.10;;;;;;;;;;5053194;28;20536;-49
2021/11/17 16:57:58;;;;;;;71.30;26.70;;;;;;;;;;5053314;28;20401;-49
2021/11/17 17:00:26;;;;;;;84.63;26.67;;;;;;;;;;5054103;28;20408;-48
2021/11/17 17:02:53;;;;;;;81.70;27.17;;;;;;;;;;5054087;28;20429;-49
2021/11/17 17:05:20;;;;;;;85.97;27.17;;;;;;;;;;5054570;28;20985;-49
2021/11/17 17:07:46;;;;;;;65.70;24.70;;;;;;;;;;5054074;28;20435;-48
2021/11/17 17:10:15;;;;;;;71.33;25.57;;;;;;;;;;5054514;28;20890;-48
2021/11/17 17:12:41;;;;;;;69.83;25.10;;;;;;;;;;5054178;28;20516;-48
2021/11/17 17:15:08;;;;;;;76.67;29.37;;;;;;;;;;5054357;28;20460;-51